sensor_id;sensor_type;location;lat;lon;timestamp;temperature;humidity
46356;DHT22;32066;49.474;11.106;2023-06-04T00:00:09;16.40;47.70
46356;DHT22;32066;49.474;11.106;2023-06-04T00:02:38;16.40;47.50
46356;DHT22;32066;49.474;11.106;2023-06-04T00:05:08;16.40;47.30
46356;DHT22;32066;49.474;11.106;2023-06-04T00:07:36;16.40;47.20
46356;DHT22;32066;49.474;11.106;2023-06-04T00:10:09;16.40;47.20
46356;DHT22;32066;49.474;11.106;2023-06-04T00:12:38;16.30;47.30
46356;DHT22;32066;49.474;11.106;2023-06-04T00:15:08;16.30;47.70
46356;DHT22;32066;49.474;11.106;2023-06-04T00:17:37;16.40;47.40
46356;DHT22;32066;49.474;11.106;2023-06-04T00:20:07;16.50;47.30
46356;DHT22;32066;49.474;11.106;2023-06-04T00:22:36;16.40;47.50
46356;DHT22;32066;49.474;11.106;2023-06-04T00:25:10;16.30;48.00
46356;DHT22;32066;49.474;11.106;2023-06-04T00:27:39;16.20;47.90
46356;DHT22;32066;49.474;11.106;2023-06-04T00:30:09;16.20;47.90
46356;DHT22;32066;49.474;11.106;2023-06-04T00:32:38;16.20;48.20
46356;DHT22;32066;49.474;11.106;2023-06-04T00:35:07;16.00;48.70
46356;DHT22;32066;49.474;11.106;2023-06-04T00:37:36;16.00;48.50
46356;DHT22;32066;49.474;11.106;2023-06-04T00:40:06;15.90;48.40
46356;DHT22;32066;49.474;11.106;2023-06-04T00:42:38;15.80;48.70
46356;DHT22;32066;49.474;11.106;2023-06-04T00:45:08;15.80;48.60
46356;DHT22;32066;49.474;11.106;2023-06-04T00:47:39;15.80;48.90
46356;DHT22;32066;49.474;11.106;2023-06-04T00:50:09;15.80;49.00
46356;DHT22;32066;49.474;11.106;2023-06-04T00:52:38;15.60;48.90
46356;DHT22;32066;49.474;11.106;2023-06-04T00:55:08;15.60;49.40
46356;DHT22;32066;49.474;11.106;2023-06-04T00:57:40;15.70;49.20
46356;DHT22;32066;49.474;11.106;2023-06-04T01:00:10;15.70;49.10
46356;DHT22;32066;49.474;11.106;2023-06-04T01:02:41;15.60;50.00
46356;DHT22;32066;49.474;11.106;2023-06-04T01:05:16;15.60;49.30
46356;DHT22;32066;49.474;11.106;2023-06-04T01:07:49;15.60;49.40
46356;DHT22;32066;49.474;11.106;2023-06-04T01:10:19;15.60;49.30
46356;DHT22;32066;49.474;11.106;2023-06-04T01:12:50;15.60;49.70
46356;DHT22;32066;49.474;11.106;2023-06-04T01:15:19;15.40;49.70
46356;DHT22;32066;49.474;11.106;2023-06-04T01:17:51;15.60;49.80
46356;DHT22;32066;49.474;11.106;2023-06-04T01:20:27;15.70;49.60
46356;DHT22;32066;49.474;11.106;2023-06-04T01:23:28;15.60;49.50
46356;DHT22;32066;49.474;11.106;2023-06-04T01:26:02;15.40;49.70
46356;DHT22;32066;49.474;11.106;2023-06-04T01:28:34;15.40;49.90
46356;DHT22;32066;49.474;11.106;2023-06-04T01:31:04;15.50;50.10
46356;DHT22;32066;49.474;11.106;2023-06-04T01:33:34;15.30;50.00
46356;DHT22;32066;49.474;11.106;2023-06-04T01:36:04;15.20;50.30
46356;DHT22;32066;49.474;11.106;2023-06-04T01:38:35;15.20;50.30
46356;DHT22;32066;49.474;11.106;2023-06-04T01:41:04;15.30;50.30
46356;DHT22;32066;49.474;11.106;2023-06-04T01:43:36;15.30;50.30
46356;DHT22;32066;49.474;11.106;2023-06-04T01:46:05;15.40;50.00
46356;DHT22;32066;49.474;11.106;2023-06-04T01:48:34;15.50;49.80
46356;DHT22;32066;49.474;11.106;2023-06-04T01:51:04;15.40;49.80
46356;DHT22;32066;49.474;11.106;2023-06-04T01:53:33;15.40;50.10
46356;DHT22;32066;49.474;11.106;2023-06-04T01:56:02;15.20;50.60
46356;DHT22;32066;49.474;11.106;2023-06-04T01:58:35;15.30;50.40
46356;DHT22;32066;49.474;11.106;2023-06-04T02:01:04;15.30;50.60
46356;DHT22;32066;49.474;11.106;2023-06-04T02:03:35;15.20;50.40
46356;DHT22;32066;49.474;11.106;2023-06-04T02:06:06;15.20;50.80
46356;DHT22;32066;49.474;11.106;2023-06-04T02:08:35;15.00;51.10
46356;DHT22;32066;49.474;11.106;2023-06-04T02:11:04;15.10;50.90
46356;DHT22;32066;49.474;11.106;2023-06-04T02:13:33;15.10;51.60
46356;DHT22;32066;49.474;11.106;2023-06-04T02:16:05;15.10;51.00
46356;DHT22;32066;49.474;11.106;2023-06-04T02:18:34;15.10;50.90
46356;DHT22;32066;49.474;11.106;2023-06-04T02:21:04;15.10;50.90
46356;DHT22;32066;49.474;11.106;2023-06-04T02:23:33;15.00;51.20
46356;DHT22;32066;49.474;11.106;2023-06-04T02:26:02;15.20;51.20
46356;DHT22;32066;49.474;11.106;2023-06-04T02:28:31;15.20;50.80
46356;DHT22;32066;49.474;11.106;2023-06-04T02:30:59;15.20;50.80
46356;DHT22;32066;49.474;11.106;2023-06-04T02:33:31;15.30;51.40
46356;DHT22;32066;49.474;11.106;2023-06-04T02:36:00;15.20;51.50
46356;DHT22;32066;49.474;11.106;2023-06-04T02:38:29;15.10;51.70
46356;DHT22;32066;49.474;11.106;2023-06-04T02:40:59;15.10;51.50
46356;DHT22;32066;49.474;11.106;2023-06-04T02:43:28;15.00;52.30
46356;DHT22;32066;49.474;11.106;2023-06-04T02:45:56;14.80;52.80
46356;DHT22;32066;49.474;11.106;2023-06-04T02:48:25;14.80;53.10
46356;DHT22;32066;49.474;11.106;2023-06-04T02:50:56;14.70;53.40
46356;DHT22;32066;49.474;11.106;2023-06-04T02:53:25;14.70;53.50
46356;DHT22;32066;49.474;11.106;2023-06-04T02:55:54;14.60;53.40
46356;DHT22;32066;49.474;11.106;2023-06-04T02:58:25;14.50;53.40
46356;DHT22;32066;49.474;11.106;2023-06-04T03:00:54;14.50;53.60
46356;DHT22;32066;49.474;11.106;2023-06-04T03:03:23;14.70;53.50
46356;DHT22;32066;49.474;11.106;2023-06-04T03:05:52;14.70;53.60
46356;DHT22;32066;49.474;11.106;2023-06-04T03:08:24;14.70;53.60
46356;DHT22;32066;49.474;11.106;2023-06-04T03:10:52;14.70;53.90
46356;DHT22;32066;49.474;11.106;2023-06-04T03:13:21;14.60;54.00
46356;DHT22;32066;49.474;11.106;2023-06-04T03:15:50;14.50;54.10
46356;DHT22;32066;49.474;11.106;2023-06-04T03:18:21;14.50;54.00
46356;DHT22;32066;49.474;11.106;2023-06-04T03:20:49;14.60;53.80
46356;DHT22;32066;49.474;11.106;2023-06-04T03:23:18;14.60;54.00
46356;DHT22;32066;49.474;11.106;2023-06-04T03:25:50;14.60;54.20
46356;DHT22;32066;49.474;11.106;2023-06-04T03:28:19;14.50;54.50
46356;DHT22;32066;49.474;11.106;2023-06-04T03:30:48;14.50;54.60
46356;DHT22;32066;49.474;11.106;2023-06-04T03:33:19;14.40;54.90
46356;DHT22;32066;49.474;11.106;2023-06-04T03:35:48;14.30;55.20
46356;DHT22;32066;49.474;11.106;2023-06-04T03:38:16;14.10;55.60
46356;DHT22;32066;49.474;11.106;2023-06-04T03:40:48;14.40;55.00
46356;DHT22;32066;49.474;11.106;2023-06-04T03:43:21;14.30;54.90
46356;DHT22;32066;49.474;11.106;2023-06-04T03:45:53;14.30;55.00
46356;DHT22;32066;49.474;11.106;2023-06-04T03:48:22;14.30;55.00
46356;DHT22;32066;49.474;11.106;2023-06-04T03:50:51;14.20;55.30
46356;DHT22;32066;49.474;11.106;2023-06-04T03:53:20;14.50;54.80
46356;DHT22;32066;49.474;11.106;2023-06-04T03:55:49;14.50;54.40
46356;DHT22;32066;49.474;11.106;2023-06-04T03:58:21;14.60;54.40
46356;DHT22;32066;49.474;11.106;2023-06-04T04:00:50;14.50;54.40
46356;DHT22;32066;49.474;11.106;2023-06-04T04:03:20;14.40;54.60
46356;DHT22;32066;49.474;11.106;2023-06-04T04:05:49;14.40;54.50
46356;DHT22;32066;49.474;11.106;2023-06-04T04:08:18;14.40;54.70
46356;DHT22;32066;49.474;11.106;2023-06-04T04:10:47;14.50;54.80
46356;DHT22;32066;49.474;11.106;2023-06-04T04:13:16;14.60;54.20
46356;DHT22;32066;49.474;11.106;2023-06-04T04:15:48;14.70;54.20
46356;DHT22;32066;49.474;11.106;2023-06-04T04:18:18;14.40;54.50
46356;DHT22;32066;49.474;11.106;2023-06-04T04:20:47;14.30;54.70
46356;DHT22;32066;49.474;11.106;2023-06-04T04:23:16;14.30;54.90
46356;DHT22;32066;49.474;11.106;2023-06-04T04:25:46;14.50;54.80
46356;DHT22;32066;49.474;11.106;2023-06-04T04:28:16;14.50;54.80
46356;DHT22;32066;49.474;11.106;2023-06-04T04:30:48;14.40;54.70
46356;DHT22;32066;49.474;11.106;2023-06-04T04:33:20;14.40;54.90
46356;DHT22;32066;49.474;11.106;2023-06-04T04:35:50;14.40;54.90
46356;DHT22;32066;49.474;11.106;2023-06-04T04:38:22;14.40;55.30
46356;DHT22;32066;49.474;11.106;2023-06-04T04:40:57;14.40;55.10
46356;DHT22;32066;49.474;11.106;2023-06-04T04:43:31;14.60;54.70
46356;DHT22;32066;49.474;11.106;2023-06-04T04:46:13;14.80;54.50
46356;DHT22;32066;49.474;11.106;2023-06-04T04:48:42;14.90;54.50
46356;DHT22;32066;49.474;11.106;2023-06-04T04:51:10;15.00;54.20
46356;DHT22;32066;49.474;11.106;2023-06-04T04:53:41;15.00;54.30
46356;DHT22;32066;49.474;11.106;2023-06-04T04:56:13;15.20;53.60
46356;DHT22;32066;49.474;11.106;2023-06-04T04:58:47;15.20;53.70
46356;DHT22;32066;49.474;11.106;2023-06-04T05:01:18;15.20;53.80
46356;DHT22;32066;49.474;11.106;2023-06-04T05:03:48;15.30;53.70
46356;DHT22;32066;49.474;11.106;2023-06-04T05:06:17;15.30;53.90
46356;DHT22;32066;49.474;11.106;2023-06-04T05:08:47;15.30;53.60
46356;DHT22;32066;49.474;11.106;2023-06-04T05:11:17;15.40;53.60
46356;DHT22;32066;49.474;11.106;2023-06-04T05:13:47;15.10;54.50
46356;DHT22;32066;49.474;11.106;2023-06-04T05:16:19;15.10;54.50
46356;DHT22;32066;49.474;11.106;2023-06-04T05:18:48;15.20;54.30
46356;DHT22;32066;49.474;11.106;2023-06-04T05:21:20;15.30;54.30
46356;DHT22;32066;49.474;11.106;2023-06-04T05:23:56;15.50;53.90
46356;DHT22;32066;49.474;11.106;2023-06-04T05:26:30;15.40;53.90
46356;DHT22;32066;49.474;11.106;2023-06-04T05:29:03;15.40;54.20
46356;DHT22;32066;49.474;11.106;2023-06-04T05:31:39;15.70;54.10
46356;DHT22;32066;49.474;11.106;2023-06-04T05:34:11;15.70;53.80
46356;DHT22;32066;49.474;11.106;2023-06-04T05:36:43;15.70;53.50
46356;DHT22;32066;49.474;11.106;2023-06-04T05:39:12;16.00;53.30
46356;DHT22;32066;49.474;11.106;2023-06-04T05:41:48;15.90;53.40
46356;DHT22;32066;49.474;11.106;2023-06-04T05:44:18;15.90;53.20
46356;DHT22;32066;49.474;11.106;2023-06-04T05:46:50;15.80;53.60
46356;DHT22;32066;49.474;11.106;2023-06-04T05:49:20;15.90;53.80
46356;DHT22;32066;49.474;11.106;2023-06-04T05:51:50;16.20;53.40
46356;DHT22;32066;49.474;11.106;2023-06-04T05:54:20;16.20;53.40
46356;DHT22;32066;49.474;11.106;2023-06-04T05:56:49;16.30;53.40
46356;DHT22;32066;49.474;11.106;2023-06-04T05:59:19;16.20;53.30
46356;DHT22;32066;49.474;11.106;2023-06-04T06:01:50;16.40;53.60
46356;DHT22;32066;49.474;11.106;2023-06-04T06:04:20;16.40;53.60
46356;DHT22;32066;49.474;11.106;2023-06-04T06:06:49;16.60;53.50
46356;DHT22;32066;49.474;11.106;2023-06-04T06:09:19;16.80;53.40
46356;DHT22;32066;49.474;11.106;2023-06-04T06:11:48;16.80;52.90
46356;DHT22;32066;49.474;11.106;2023-06-04T06:14:17;16.80;53.10
46356;DHT22;32066;49.474;11.106;2023-06-04T06:16:46;16.80;52.80
46356;DHT22;32066;49.474;11.106;2023-06-04T06:19:18;17.00;53.30
46356;DHT22;32066;49.474;11.106;2023-06-04T06:21:47;17.10;53.10
46356;DHT22;32066;49.474;11.106;2023-06-04T06:24:16;17.20;53.30
46356;DHT22;32066;49.474;11.106;2023-06-04T06:26:45;17.10;52.20
46356;DHT22;32066;49.474;11.106;2023-06-04T06:29:15;17.00;52.60
46356;DHT22;32066;49.474;11.106;2023-06-04T06:31:44;17.10;53.00
46356;DHT22;32066;49.474;11.106;2023-06-04T06:34:13;17.10;53.20
46356;DHT22;32066;49.474;11.106;2023-06-04T06:36:44;17.30;53.00
46356;DHT22;32066;49.474;11.106;2023-06-04T06:39:13;17.50;52.90
46356;DHT22;32066;49.474;11.106;2023-06-04T06:41:42;17.60;52.20
46356;DHT22;32066;49.474;11.106;2023-06-04T06:44:16;17.70;52.40
46356;DHT22;32066;49.474;11.106;2023-06-04T06:46:45;17.60;52.50
46356;DHT22;32066;49.474;11.106;2023-06-04T06:49:14;17.60;52.50
46356;DHT22;32066;49.474;11.106;2023-06-04T06:51:45;17.70;52.60
46356;DHT22;32066;49.474;11.106;2023-06-04T06:54:15;17.80;52.50
46356;DHT22;32066;49.474;11.106;2023-06-04T06:56:47;17.90;52.70
46356;DHT22;32066;49.474;11.106;2023-06-04T06:59:16;18.10;52.30
46356;DHT22;32066;49.474;11.106;2023-06-04T07:01:45;18.20;52.50
46356;DHT22;32066;49.474;11.106;2023-06-04T07:04:14;18.30;52.10
46356;DHT22;32066;49.474;11.106;2023-06-04T07:06:45;18.30;52.10
46356;DHT22;32066;49.474;11.106;2023-06-04T07:09:14;18.30;52.50
46356;DHT22;32066;49.474;11.106;2023-06-04T07:11:43;18.40;52.20
46356;DHT22;32066;49.474;11.106;2023-06-04T07:14:11;18.50;52.40
46356;DHT22;32066;49.474;11.106;2023-06-04T07:16:40;18.50;52.30
46356;DHT22;32066;49.474;11.106;2023-06-04T07:19:09;18.60;52.50
46356;DHT22;32066;49.474;11.106;2023-06-04T07:21:37;18.70;52.10
46356;DHT22;32066;49.474;11.106;2023-06-04T07:24:09;18.90;52.20
46356;DHT22;32066;49.474;11.106;2023-06-04T07:26:38;19.10;51.90
46356;DHT22;32066;49.474;11.106;2023-06-04T07:29:06;19.10;51.50
46356;DHT22;32066;49.474;11.106;2023-06-04T07:31:35;19.00;51.70
46356;DHT22;32066;49.474;11.106;2023-06-04T07:34:04;19.20;51.80
46356;DHT22;32066;49.474;11.106;2023-06-04T07:36:32;19.30;51.60
46356;DHT22;32066;49.474;11.106;2023-06-04T07:39:02;19.30;51.30
46356;DHT22;32066;49.474;11.106;2023-06-04T07:41:34;19.30;51.50
46356;DHT22;32066;49.474;11.106;2023-06-04T07:44:03;19.50;51.60
46356;DHT22;32066;49.474;11.106;2023-06-04T07:46:31;19.60;51.30
46356;DHT22;32066;49.474;11.106;2023-06-04T07:49:00;19.70;51.50
46356;DHT22;32066;49.474;11.106;2023-06-04T07:51:29;19.90;51.00
46356;DHT22;32066;49.474;11.106;2023-06-04T07:53:57;19.90;51.30
46356;DHT22;32066;49.474;11.106;2023-06-04T07:56:26;20.00;51.00
46356;DHT22;32066;49.474;11.106;2023-06-04T07:58:57;20.00;50.90
46356;DHT22;32066;49.474;11.106;2023-06-04T08:01:26;20.10;50.90
46356;DHT22;32066;49.474;11.106;2023-06-04T08:03:55;20.20;50.90
46356;DHT22;32066;49.474;11.106;2023-06-04T08:06:24;20.40;50.70
46356;DHT22;32066;49.474;11.106;2023-06-04T08:08:53;20.30;50.50
46356;DHT22;32066;49.474;11.106;2023-06-04T08:11:22;20.40;50.70
46356;DHT22;32066;49.474;11.106;2023-06-04T08:13:51;20.50;50.40
46356;DHT22;32066;49.474;11.106;2023-06-04T08:16:22;20.60;50.30
46356;DHT22;32066;49.474;11.106;2023-06-04T08:18:51;20.70;50.30
46356;DHT22;32066;49.474;11.106;2023-06-04T08:21:25;20.70;49.90
46356;DHT22;32066;49.474;11.106;2023-06-04T08:23:55;20.70;49.90
46356;DHT22;32066;49.474;11.106;2023-06-04T08:26:24;21.00;49.30
46356;DHT22;32066;49.474;11.106;2023-06-04T08:28:55;21.10;49.10
46356;DHT22;32066;49.474;11.106;2023-06-04T08:31:26;21.20;49.60
46356;DHT22;32066;49.474;11.106;2023-06-04T08:33:55;21.30;49.50
46356;DHT22;32066;49.474;11.106;2023-06-04T08:36:24;21.20;48.30
46356;DHT22;32066;49.474;11.106;2023-06-04T08:38:52;21.30;48.90
46356;DHT22;32066;49.474;11.106;2023-06-04T08:41:26;21.40;48.30
46356;DHT22;32066;49.474;11.106;2023-06-04T08:43:57;21.50;48.60
46356;DHT22;32066;49.474;11.106;2023-06-04T08:46:32;21.60;48.50
46356;DHT22;32066;49.474;11.106;2023-06-04T08:49:01;21.60;48.20
46356;DHT22;32066;49.474;11.106;2023-06-04T08:51:34;21.70;47.90
46356;DHT22;32066;49.474;11.106;2023-06-04T08:54:04;21.70;47.80
46356;DHT22;32066;49.474;11.106;2023-06-04T08:56:34;21.90;48.20
46356;DHT22;32066;49.474;11.106;2023-06-04T08:59:05;21.90;46.50
46356;DHT22;32066;49.474;11.106;2023-06-04T09:01:37;21.80;47.30
46356;DHT22;32066;49.474;11.106;2023-06-04T09:04:07;21.90;47.60
46356;DHT22;32066;49.474;11.106;2023-06-04T09:06:36;21.90;47.10
46356;DHT22;32066;49.474;11.106;2023-06-04T09:09:08;21.90;47.00
46356;DHT22;32066;49.474;11.106;2023-06-04T09:11:44;22.00;46.80
46356;DHT22;32066;49.474;11.106;2023-06-04T09:14:14;22.10;46.70
46356;DHT22;32066;49.474;11.106;2023-06-04T09:16:48;22.10;46.30
46356;DHT22;32066;49.474;11.106;2023-06-04T09:19:18;22.00;46.20
46356;DHT22;32066;49.474;11.106;2023-06-04T09:21:51;21.60;46.60
46356;DHT22;32066;49.474;11.106;2023-06-04T09:24:20;21.30;46.60
46356;DHT22;32066;49.474;11.106;2023-06-04T09:26:50;21.40;46.80
46356;DHT22;32066;49.474;11.106;2023-06-04T09:29:19;21.50;46.70
46356;DHT22;32066;49.474;11.106;2023-06-04T09:32:00;21.40;46.10
46356;DHT22;32066;49.474;11.106;2023-06-04T09:34:29;21.20;46.60
46356;DHT22;32066;49.474;11.106;2023-06-04T09:36:59;21.10;47.00
46356;DHT22;32066;49.474;11.106;2023-06-04T09:39:28;21.30;46.90
46356;DHT22;32066;49.474;11.106;2023-06-04T09:41:59;21.70;46.80
46356;DHT22;32066;49.474;11.106;2023-06-04T09:44:29;21.70;46.80
46356;DHT22;32066;49.474;11.106;2023-06-04T09:47:00;22.10;45.70
46356;DHT22;32066;49.474;11.106;2023-06-04T09:49:40;22.40;45.40
46356;DHT22;32066;49.474;11.106;2023-06-04T09:52:09;22.60;45.10
46356;DHT22;32066;49.474;11.106;2023-06-04T09:54:39;22.80;44.80
46356;DHT22;32066;49.474;11.106;2023-06-04T09:57:14;22.90;43.60
46356;DHT22;32066;49.474;11.106;2023-06-04T09:59:45;22.80;43.40
46356;DHT22;32066;49.474;11.106;2023-06-04T10:02:19;22.90;42.20
46356;DHT22;32066;49.474;11.106;2023-06-04T10:04:49;22.90;41.20
46356;DHT22;32066;49.474;11.106;2023-06-04T10:07:23;23.00;42.30
46356;DHT22;32066;49.474;11.106;2023-06-04T10:09:52;23.10;42.20
46356;DHT22;32066;49.474;11.106;2023-06-04T10:12:23;23.20;42.40
46356;DHT22;32066;49.474;11.106;2023-06-04T10:14:56;22.90;41.70
46356;DHT22;32066;49.474;11.106;2023-06-04T10:17:29;23.00;41.50
46356;DHT22;32066;49.474;11.106;2023-06-04T10:20:00;22.40;43.00
46356;DHT22;32066;49.474;11.106;2023-06-04T10:22:31;22.00;42.90
46356;DHT22;32066;49.474;11.106;2023-06-04T10:25:01;22.50;43.80
46356;DHT22;32066;49.474;11.106;2023-06-04T10:27:30;23.10;43.20
46356;DHT22;32066;49.474;11.106;2023-06-04T10:30:01;23.20;42.40
46356;DHT22;32066;49.474;11.106;2023-06-04T10:32:34;23.40;42.60
46356;DHT22;32066;49.474;11.106;2023-06-04T10:35:07;23.60;41.70
46356;DHT22;32066;49.474;11.106;2023-06-04T10:37:36;23.70;42.40
46356;DHT22;32066;49.474;11.106;2023-06-04T10:40:06;24.00;41.10
46356;DHT22;32066;49.474;11.106;2023-06-04T10:42:40;23.90;40.90
46356;DHT22;32066;49.474;11.106;2023-06-04T10:45:10;24.10;40.30
46356;DHT22;32066;49.474;11.106;2023-06-04T10:47:41;24.10;39.70
46356;DHT22;32066;49.474;11.106;2023-06-04T10:50:11;23.90;39.60
46356;DHT22;32066;49.474;11.106;2023-06-04T10:52:51;23.80;39.50
46356;DHT22;32066;49.474;11.106;2023-06-04T10:55:20;23.40;40.30
46356;DHT22;32066;49.474;11.106;2023-06-04T10:57:53;23.50;40.50
46356;DHT22;32066;49.474;11.106;2023-06-04T11:00:22;23.60;41.20
46356;DHT22;32066;49.474;11.106;2023-06-04T11:02:56;23.80;40.30
46356;DHT22;32066;49.474;11.106;2023-06-04T11:05:34;24.00;38.50
46356;DHT22;32066;49.474;11.106;2023-06-04T11:08:04;24.10;38.90
46356;DHT22;32066;49.474;11.106;2023-06-04T11:10:34;24.30;39.60
46356;DHT22;32066;49.474;11.106;2023-06-04T11:13:04;24.30;39.90
46356;DHT22;32066;49.474;11.106;2023-06-04T11:15:40;24.50;40.20
46356;DHT22;32066;49.474;11.106;2023-06-04T11:18:13;24.60;39.60
46356;DHT22;32066;49.474;11.106;2023-06-04T11:20:43;24.60;39.20
46356;DHT22;32066;49.474;11.106;2023-06-04T11:23:13;24.00;38.60
46356;DHT22;32066;49.474;11.106;2023-06-04T11:25:43;23.20;40.30
46356;DHT22;32066;49.474;11.106;2023-06-04T11:28:15;23.60;41.30
46356;DHT22;32066;49.474;11.106;2023-06-04T11:30:56;23.80;41.60
46356;DHT22;32066;49.474;11.106;2023-06-04T11:33:27;23.90;45.90
46356;DHT22;32066;49.474;11.106;2023-06-04T11:35:56;24.00;41.70
46356;DHT22;32066;49.474;11.106;2023-06-04T11:38:24;24.30;41.20
46356;DHT22;32066;49.474;11.106;2023-06-04T11:40:58;24.40;42.60
46356;DHT22;32066;49.474;11.106;2023-06-04T11:43:27;24.20;41.10
46356;DHT22;32066;49.474;11.106;2023-06-04T11:45:56;24.20;40.90
46356;DHT22;32066;49.474;11.106;2023-06-04T11:48:29;24.50;40.40
46356;DHT22;32066;49.474;11.106;2023-06-04T11:51:04;24.80;39.90
46356;DHT22;32066;49.474;11.106;2023-06-04T11:53:33;24.70;39.30
46356;DHT22;32066;49.474;11.106;2023-06-04T11:56:01;24.90;40.00
46356;DHT22;32066;49.474;11.106;2023-06-04T11:58:30;25.10;39.60
46356;DHT22;32066;49.474;11.106;2023-06-04T12:01:00;24.50;39.10
46356;DHT22;32066;49.474;11.106;2023-06-04T12:03:37;24.20;38.90
46356;DHT22;32066;49.474;11.106;2023-06-04T12:06:11;24.50;39.40
46356;DHT22;32066;49.474;11.106;2023-06-04T12:08:48;24.80;38.70
46356;DHT22;32066;49.474;11.106;2023-06-04T12:11:25;25.10;37.80
46356;DHT22;32066;49.474;11.106;2023-06-04T12:13:55;25.30;37.00
46356;DHT22;32066;49.474;11.106;2023-06-04T12:16:25;25.40;37.00
46356;DHT22;32066;49.474;11.106;2023-06-04T12:19:07;25.50;37.40
46356;DHT22;32066;49.474;11.106;2023-06-04T12:21:36;25.60;37.30
46356;DHT22;32066;49.474;11.106;2023-06-04T12:24:09;25.70;37.50
46356;DHT22;32066;49.474;11.106;2023-06-04T12:26:39;25.90;37.70
46356;DHT22;32066;49.474;11.106;2023-06-04T12:29:11;26.00;37.90
46356;DHT22;32066;49.474;11.106;2023-06-04T12:31:41;26.20;37.70
46356;DHT22;32066;49.474;11.106;2023-06-04T12:34:13;26.00;37.10
46356;DHT22;32066;49.474;11.106;2023-06-04T12:36:43;26.00;37.50
46356;DHT22;32066;49.474;11.106;2023-06-04T12:39:12;26.10;36.60
46356;DHT22;32066;49.474;11.106;2023-06-04T12:41:44;26.00;36.40
46356;DHT22;32066;49.474;11.106;2023-06-04T12:44:13;25.30;36.40
46356;DHT22;32066;49.474;11.106;2023-06-04T12:46:42;25.30;37.00
46356;DHT22;32066;49.474;11.106;2023-06-04T12:49:13;25.30;37.10
46356;DHT22;32066;49.474;11.106;2023-06-04T12:51:42;25.70;37.10
46356;DHT22;32066;49.474;11.106;2023-06-04T12:54:11;25.50;37.50
46356;DHT22;32066;49.474;11.106;2023-06-04T12:56:40;24.60;38.00
46356;DHT22;32066;49.474;11.106;2023-06-04T12:59:09;24.60;38.60
46356;DHT22;32066;49.474;11.106;2023-06-04T13:01:37;24.60;38.40
46356;DHT22;32066;49.474;11.106;2023-06-04T13:04:06;24.40;37.80
46356;DHT22;32066;49.474;11.106;2023-06-04T13:06:38;24.70;38.30
46356;DHT22;32066;49.474;11.106;2023-06-04T13:09:07;24.70;38.00
46356;DHT22;32066;49.474;11.106;2023-06-04T13:11:37;24.80;38.20
46356;DHT22;32066;49.474;11.106;2023-06-04T13:14:07;25.30;38.60
46356;DHT22;32066;49.474;11.106;2023-06-04T13:16:36;25.40;37.90
46356;DHT22;32066;49.474;11.106;2023-06-04T13:19:05;25.70;39.50
46356;DHT22;32066;49.474;11.106;2023-06-04T13:21:34;26.20;38.20
46356;DHT22;32066;49.474;11.106;2023-06-04T13:24:06;26.30;37.70
46356;DHT22;32066;49.474;11.106;2023-06-04T13:26:36;26.50;38.10
46356;DHT22;32066;49.474;11.106;2023-06-04T13:29:07;26.70;38.30
46356;DHT22;32066;49.474;11.106;2023-06-04T13:31:36;26.90;38.10
46356;DHT22;32066;49.474;11.106;2023-06-04T13:34:06;26.80;38.00
46356;DHT22;32066;49.474;11.106;2023-06-04T13:36:35;27.00;38.00
46356;DHT22;32066;49.474;11.106;2023-06-04T13:39:06;27.20;37.50
46356;DHT22;32066;49.474;11.106;2023-06-04T13:41:35;27.20;38.10
46356;DHT22;32066;49.474;11.106;2023-06-04T13:44:03;27.40;38.10
46356;DHT22;32066;49.474;11.106;2023-06-04T13:46:33;27.70;37.40
46356;DHT22;32066;49.474;11.106;2023-06-04T13:49:01;27.80;37.30
46356;DHT22;32066;49.474;11.106;2023-06-04T13:51:31;28.00;36.50
46356;DHT22;32066;49.474;11.106;2023-06-04T13:53:59;27.80;35.70
46356;DHT22;32066;49.474;11.106;2023-06-04T13:56:31;27.50;37.10
46356;DHT22;32066;49.474;11.106;2023-06-04T13:58:59;27.60;37.10
46356;DHT22;32066;49.474;11.106;2023-06-04T14:01:28;27.60;36.40
46356;DHT22;32066;49.474;11.106;2023-06-04T14:03:57;27.80;36.90
46356;DHT22;32066;49.474;11.106;2023-06-04T14:06:26;27.50;36.10
46356;DHT22;32066;49.474;11.106;2023-06-04T14:08:55;27.10;37.20
46356;DHT22;32066;49.474;11.106;2023-06-04T14:11:24;27.30;36.90
46356;DHT22;32066;49.474;11.106;2023-06-04T14:13:55;27.00;37.40
46356;DHT22;32066;49.474;11.106;2023-06-04T14:16:24;27.30;36.20
46356;DHT22;32066;49.474;11.106;2023-06-04T14:18:52;27.30;36.40
46356;DHT22;32066;49.474;11.106;2023-06-04T14:21:21;27.50;36.10
46356;DHT22;32066;49.474;11.106;2023-06-04T14:23:50;27.80;35.70
46356;DHT22;32066;49.474;11.106;2023-06-04T14:26:19;27.90;35.10
46356;DHT22;32066;49.474;11.106;2023-06-04T14:28:50;27.90;35.00
46356;DHT22;32066;49.474;11.106;2023-06-04T14:31:25;27.80;35.20
46356;DHT22;32066;49.474;11.106;2023-06-04T14:33:54;27.10;35.40
46356;DHT22;32066;49.474;11.106;2023-06-04T14:36:23;27.30;36.20
46356;DHT22;32066;49.474;11.106;2023-06-04T14:38:51;27.50;36.30
46356;DHT22;32066;49.474;11.106;2023-06-04T14:41:20;27.90;36.40
46356;DHT22;32066;49.474;11.106;2023-06-04T14:43:48;26.90;35.60
46356;DHT22;32066;49.474;11.106;2023-06-04T14:46:17;26.50;36.80
46356;DHT22;32066;49.474;11.106;2023-06-04T14:48:48;26.70;37.00
46356;DHT22;32066;49.474;11.106;2023-06-04T14:51:17;26.60;36.50
46356;DHT22;32066;49.474;11.106;2023-06-04T14:53:47;26.80;37.10
46356;DHT22;32066;49.474;11.106;2023-06-04T14:56:16;26.50;37.30
46356;DHT22;32066;49.474;11.106;2023-06-04T14:58:45;26.70;36.60
46356;DHT22;32066;49.474;11.106;2023-06-04T15:01:14;27.10;35.30
46356;DHT22;32066;49.474;11.106;2023-06-04T15:03:43;27.20;35.70
46356;DHT22;32066;49.474;11.106;2023-06-04T15:06:14;27.20;36.00
46356;DHT22;32066;49.474;11.106;2023-06-04T15:08:43;27.50;35.90
46356;DHT22;32066;49.474;11.106;2023-06-04T15:11:11;27.50;35.10
46356;DHT22;32066;49.474;11.106;2023-06-04T15:13:40;27.30;36.00
46356;DHT22;32066;49.474;11.106;2023-06-04T15:16:08;27.10;36.60
46356;DHT22;32066;49.474;11.106;2023-06-04T15:21:06;27.80;36.60
46356;DHT22;32066;49.474;11.106;2023-06-04T15:23:37;27.50;36.90
46356;DHT22;32066;49.474;11.106;2023-06-04T15:26:06;27.80;37.10
46356;DHT22;32066;49.474;11.106;2023-06-04T15:28:34;28.00;36.20
46356;DHT22;32066;49.474;11.106;2023-06-04T15:31:03;27.10;37.00
46356;DHT22;32066;49.474;11.106;2023-06-04T15:33:32;26.80;36.70
46356;DHT22;32066;49.474;11.106;2023-06-04T15:36:00;26.50;37.20